createdAt,value
2022-08-22T00:00:58.542Z,100854.59
2022-08-22T00:03:16.333Z,100854.88
2022-08-22T00:03:48.698Z,100854.34
2022-08-22T00:06:27.185Z,100855.53
2022-08-22T00:09:17.864Z,100864.19
2022-08-22T00:11:50.263Z,100866.44
2022-08-22T00:14:23.043Z,100862.69
2022-08-22T00:17:21.877Z,100859.81
2022-08-22T00:20:13.227Z,100859.56
2022-08-22T00:22:53.406Z,100855.69
2022-08-22T00:25:29.658Z,100854.19
2022-08-22T00:28:30.294Z,100853.38
2022-08-22T00:31:02.918Z,100852.50
2022-08-22T00:33:43.461Z,100855.19
2022-08-22T00:36:16.797Z,100860.88
2022-08-22T00:38:50.918Z,100857.81
2022-08-22T00:41:33.950Z,100856.31
2022-08-22T00:44:29.037Z,100858.63
2022-08-22T00:47:50.344Z,100859.03
2022-08-22T00:50:22.457Z,100848.75
2022-08-22T00:53:26.002Z,100851.09
2022-08-22T00:56:01.835Z,100840.53
2022-08-22T00:58:49.885Z,100846.53
2022-08-22T01:01:22.631Z,100849.84
2022-08-22T01:03:58.899Z,100854.38
2022-08-22T01:06:57.101Z,100858.56
2022-08-22T01:09:41.304Z,100857.84
2022-08-22T01:12:29.571Z,100858.13
2022-08-22T01:14:59.818Z,100858.09
2022-08-22T01:17:53.145Z,100858.88
2022-08-22T01:20:57.957Z,100858.47
2022-08-22T01:23:32.766Z,100868.31
2022-08-22T01:26:33.342Z,100867.00
2022-08-22T01:29:28.305Z,100872.53
2022-08-22T01:32:01.040Z,100872.31
2022-08-22T01:34:37.490Z,100878.41
2022-08-22T01:37:16.042Z,100879.34
2022-08-22T01:40:05.731Z,100867.56
2022-08-22T01:42:51.017Z,100865.78
2022-08-22T01:45:41.099Z,100861.66
2022-08-22T01:48:20.786Z,100869.28
2022-08-22T01:50:52.992Z,100876.44
2022-08-22T01:53:26.226Z,100872.31
2022-08-22T01:56:09.362Z,100882.16
2022-08-22T01:58:37.729Z,100872.00
2022-08-22T02:01:13.822Z,100873.91
2022-08-22T02:04:20.081Z,100880.91
2022-08-22T02:07:01.056Z,100879.06
2022-08-22T02:10:06.417Z,100869.56
2022-08-22T02:12:58.214Z,100875.53
2022-08-22T02:15:35.238Z,100867.38
2022-08-22T02:18:04.727Z,100880.03
2022-08-22T02:20:49.867Z,100876.19
2022-08-22T02:23:25.152Z,100873.56
2022-08-22T02:26:03.433Z,100877.28
2022-08-22T02:28:37.986Z,100884.19
2022-08-22T02:31:20.789Z,100883.50
2022-08-22T02:33:57.012Z,100879.91
2022-08-22T02:36:54.474Z,100889.97
2022-08-22T02:39:46.792Z,100883.47
2022-08-22T02:42:40.463Z,100890.81
2022-08-22T02:45:25.055Z,100888.28
2022-08-22T02:48:14.820Z,100876.00
2022-08-22T02:51:13.088Z,100872.50
2022-08-22T02:53:49.386Z,100875.16
2022-08-22T02:56:25.228Z,100881.03
2022-08-22T02:58:59.146Z,100879.25
2022-08-22T03:01:29.844Z,100881.59
2022-08-22T03:04:17.999Z,100880.75
2022-08-22T03:06:46.519Z,100884.94
2022-08-22T03:09:16.053Z,100878.53
2022-08-22T03:11:46.487Z,100876.66
2022-08-22T03:14:29.418Z,100867.78
2022-08-22T03:17:03.632Z,100878.06
2022-08-22T03:19:42.489Z,100876.31
2022-08-22T03:22:16.958Z,100875.47
2022-08-22T03:25:10.898Z,100869.72
2022-08-22T03:27:56.041Z,100875.56
2022-08-22T03:30:31.214Z,100888.28
2022-08-22T03:33:16.641Z,100887.88
2022-08-22T03:35:51.441Z,100887.09
2022-08-22T03:38:23.475Z,100878.06
2022-08-22T03:41:27.581Z,100873.84
2022-08-22T03:44:07.315Z,100880.03
2022-08-22T03:47:12.715Z,100884.25
2022-08-22T03:50:16.184Z,100888.00
2022-08-22T03:53:07.672Z,100883.50
2022-08-22T03:55:44.507Z,100886.03
2022-08-22T03:58:28.039Z,100886.41
2022-08-22T04:01:16.287Z,100890.34
2022-08-22T04:03:46.993Z,100887.78
2022-08-22T04:06:29.586Z,100884.38
2022-08-22T04:09:33.721Z,100882.94
2022-08-22T04:12:13.229Z,100877.59
2022-08-22T04:14:58.044Z,100884.72
2022-08-22T04:17:32.991Z,100886.22
2022-08-22T04:20:16.637Z,100888.00
2022-08-22T04:23:21.972Z,100897.50
2022-08-22T04:25:57.657Z,100908.56
2022-08-22T04:28:31.710Z,100893.81
2022-08-22T04:31:14.354Z,100893.84
2022-08-22T04:33:47.965Z,100900.38
2022-08-22T04:36:27.956Z,100906.09
2022-08-22T04:39:05.467Z,100904.50
2022-08-22T04:41:54.680Z,100898.75
2022-08-22T04:44:30.052Z,100906.91
2022-08-22T04:47:00.418Z,100903.00
2022-08-22T04:49:34.550Z,100900.81
2022-08-22T04:52:32.081Z,100902.34
2022-08-22T04:55:14.992Z,100907.31
2022-08-22T04:57:54.776Z,100912.94
2022-08-22T05:00:21.954Z,100906.97
2022-08-22T05:02:51.860Z,100915.03
2022-08-22T05:05:35.682Z,100918.78
2022-08-22T05:08:03.294Z,100913.91
2022-08-22T05:10:40.631Z,100916.63
2022-08-22T05:13:11.166Z,100918.94
2022-08-22T05:15:39.789Z,100920.13
2022-08-22T05:18:22.788Z,100928.94
2022-08-22T05:20:52.755Z,100924.28
2022-08-22T05:23:24.950Z,100926.28
2022-08-22T05:25:54.848Z,100926.66
2022-08-22T05:28:53.246Z,100929.31
2022-08-22T05:31:32.706Z,100928.22
2022-08-22T05:34:07.984Z,100933.16
2022-08-22T05:36:38.051Z,100919.88
2022-08-22T05:39:28.240Z,100925.97
2022-08-22T05:41:58.928Z,100936.28
2022-08-22T05:44:34.454Z,100937.06
2022-08-22T05:47:21.691Z,100941.25
2022-08-22T05:50:02.232Z,100944.69
2022-08-22T05:53:06.248Z,100949.66
2022-08-22T05:55:55.562Z,100948.13
2022-08-22T05:58:43.320Z,100950.41
2022-08-22T06:01:52.260Z,100955.38
2022-08-22T06:04:43.948Z,100946.97
2022-08-22T06:07:26.551Z,100956.53
2022-08-22T06:10:25.891Z,100956.53
2022-08-22T06:12:53.151Z,100953.09
2022-08-22T06:15:23.114Z,100955.34
2022-08-22T06:17:57.809Z,100953.78
2022-08-22T06:20:32.335Z,100955.25
2022-08-22T06:23:01.414Z,100960.50
2022-08-22T06:25:32.319Z,100953.56
2022-08-22T06:28:02.638Z,100956.06
2022-08-22T06:30:29.873Z,100957.63
2022-08-22T06:33:01.818Z,100966.00
2022-08-22T06:35:52.443Z,100963.69
2022-08-22T06:38:20.191Z,100955.88
2022-08-22T06:40:47.179Z,100955.56
2022-08-22T06:43:13.906Z,100953.63
2022-08-22T06:45:48.754Z,100962.88
2022-08-22T06:48:18.529Z,100960.16
2022-08-22T06:50:49.091Z,100969.31
2022-08-22T06:53:24.783Z,100969.31
2022-08-22T06:55:54.708Z,100975.16
2022-08-22T06:58:27.288Z,100967.34
2022-08-22T07:01:14.628Z,100974.16
2022-08-22T07:03:44.175Z,100976.72
2022-08-22T07:06:16.000Z,100979.69
2022-08-22T07:08:44.479Z,100982.34
2022-08-22T07:11:24.647Z,100987.00
2022-08-22T07:14:04.676Z,100988.31
2022-08-22T07:16:43.950Z,100992.34
2022-08-22T07:19:26.935Z,100984.34
2022-08-22T07:21:56.033Z,100986.38
2022-08-22T07:24:28.261Z,100994.34
2022-08-22T07:27:13.888Z,100989.78
2022-08-22T07:30:27.820Z,100988.03
2022-08-22T07:33:25.944Z,100983.84
2022-08-22T07:36:02.374Z,100983.13
2022-08-22T07:38:45.056Z,100986.09
2022-08-22T07:41:15.911Z,100979.66
2022-08-22T07:44:16.789Z,100973.34
2022-08-22T07:46:55.777Z,100985.59
2022-08-22T07:49:36.930Z,100982.16
2022-08-22T07:52:11.919Z,100987.41
2022-08-22T07:54:45.516Z,100990.59
2022-08-22T07:57:16.203Z,100990.47
2022-08-22T07:59:47.342Z,100988.31
2022-08-22T08:02:15.823Z,100991.03
2022-08-22T08:04:42.893Z,100994.16
2022-08-22T08:07:12.653Z,100992.22
2022-08-22T08:09:44.444Z,101002.88
2022-08-22T08:12:12.491Z,100995.63
2022-08-22T08:14:44.116Z,101003.63
2022-08-22T08:17:26.885Z,100997.59
2022-08-22T08:19:56.449Z,100999.97
2022-08-22T08:22:25.063Z,100997.75
2022-08-22T08:24:55.478Z,100996.53
2022-08-22T08:27:45.359Z,101001.38
2022-08-22T08:30:36.637Z,100994.44
2022-08-22T08:33:25.316Z,101001.03
2022-08-22T08:36:06.810Z,101004.94
2022-08-22T08:38:45.096Z,101005.72
2022-08-22T08:41:29.167Z,101000.00
2022-08-22T08:44:19.863Z,100999.19
2022-08-22T08:47:07.089Z,101005.66
2022-08-22T08:49:42.818Z,101009.28
2022-08-22T08:52:21.727Z,101003.28
2022-08-22T08:55:21.795Z,101007.03
2022-08-22T08:58:13.880Z,101008.47
2022-08-22T09:00:52.259Z,100996.72
2022-08-22T09:03:56.726Z,100999.06
2022-08-22T09:06:52.621Z,101003.78
2022-08-22T09:09:42.536Z,100998.44
2022-08-22T09:13:12.608Z,101003.78
2022-08-22T09:16:04.751Z,100998.44
2022-08-22T09:18:56.567Z,100993.75
2022-08-22T09:22:01.334Z,100997.91
2022-08-22T09:24:33.920Z,100998.44
2022-08-22T09:27:08.969Z,100991.66
2022-08-22T09:29:51.675Z,100996.44
2022-08-22T09:32:59.660Z,101006.31
2022-08-22T09:35:49.408Z,101000.41
2022-08-22T09:38:40.748Z,101006.47
2022-08-22T09:41:27.505Z,100998.50
2022-08-22T09:44:12.466Z,101003.25
2022-08-22T09:47:19.005Z,101004.06
2022-08-22T09:50:17.007Z,100999.84
2022-08-22T09:53:00.406Z,101007.41
2022-08-22T09:55:52.243Z,101004.44
2022-08-22T09:58:42.762Z,101008.81
2022-08-22T10:01:27.515Z,101007.50
2022-08-22T10:04:14.779Z,101008.56
2022-08-22T10:07:13.426Z,101002.88
2022-08-22T10:10:05.935Z,101012.66
2022-08-22T10:12:40.049Z,101011.72
2022-08-22T10:15:50.549Z,101019.19
2022-08-22T10:18:44.005Z,101022.56
2022-08-22T10:21:26.315Z,101014.34
2022-08-22T10:24:25.712Z,101017.16
2022-08-22T10:27:05.147Z,101017.34
2022-08-22T10:29:51.196Z,101019.16
2022-08-22T10:32:33.603Z,101021.84
2022-08-22T10:35:17.871Z,101021.09
2022-08-22T10:38:25.024Z,101016.78
2022-08-22T10:41:09.428Z,101019.66
2022-08-22T10:44:00.884Z,101016.19
2022-08-22T10:46:35.391Z,101022.53
2022-08-22T10:49:05.761Z,101023.22
2022-08-22T10:51:46.747Z,101026.16
2022-08-22T10:55:05.788Z,101029.91
2022-08-22T10:58:14.119Z,101027.53
2022-08-22T11:01:15.127Z,101021.00
2022-08-22T11:06:47.736Z,101027.66
2022-08-22T11:09:34.433Z,101020.16
2022-08-22T11:12:23.505Z,101025.81
2022-08-22T11:15:28.262Z,101035.59
2022-08-22T11:18:30.534Z,101030.16
2022-08-22T11:21:26.880Z,101022.91
2022-08-22T11:24:35.326Z,101022.34
2022-08-22T11:27:37.673Z,101024.22
2022-08-22T11:30:10.894Z,101019.56
2022-08-22T11:33:17.864Z,101016.53
2022-08-22T11:35:52.235Z,101022.88
2022-08-22T11:38:32.416Z,101031.06
2022-08-22T11:41:25.759Z,101026.97
2022-08-22T11:44:11.220Z,101032.78
2022-08-22T11:46:46.350Z,101034.56
2022-08-22T11:49:45.588Z,101035.94
2022-08-22T11:52:18.533Z,101035.69
2022-08-22T11:55:16.945Z,101024.81
2022-08-22T11:57:48.495Z,101030.06
2022-08-22T12:00:24.935Z,101034.56
2022-08-22T12:03:23.644Z,101031.94
2022-08-22T12:06:23.744Z,101033.75
2022-08-22T12:09:08.346Z,101033.81
2022-08-22T12:11:53.836Z,101031.34
2022-08-22T12:14:33.301Z,101033.19
2022-08-22T12:17:55.714Z,101036.88
2022-08-22T12:20:52.589Z,101041.13
2022-08-22T12:23:49.640Z,101025.78
2022-08-22T12:26:31.938Z,101032.47
2022-08-22T12:29:16.899Z,101025.06
2022-08-22T12:31:58.878Z,101031.16
2022-08-22T12:34:37.333Z,101031.19
2022-08-22T12:37:15.999Z,101034.50
2022-08-22T12:40:08.836Z,101024.16
2022-08-22T12:43:09.183Z,101032.81
2022-08-22T12:45:40.449Z,101032.66
2022-08-22T12:48:37.987Z,101030.31
2022-08-22T12:51:22.771Z,101035.56
2022-08-22T12:54:18.465Z,101026.69
2022-08-22T12:57:23.409Z,101023.75
2022-08-22T12:59:55.471Z,101020.88
2022-08-22T13:02:32.327Z,101022.91
2022-08-22T13:05:20.033Z,101016.34
2022-08-22T13:07:54.395Z,101015.03
2022-08-22T13:10:36.733Z,101016.75
2022-08-22T13:13:12.047Z,101012.91
2022-08-22T13:15:53.615Z,101015.13
2022-08-22T13:18:31.090Z,101017.69
2022-08-22T13:21:02.045Z,101023.22
2022-08-22T13:23:39.624Z,101017.41
2022-08-22T13:26:33.128Z,101024.13
2022-08-22T13:29:26.845Z,101024.00
2022-08-22T13:32:00.093Z,101018.91
2022-08-22T13:35:07.665Z,101028.09
2022-08-22T13:37:40.775Z,101035.56
2022-08-22T13:40:14.687Z,101028.66
2022-08-22T13:42:49.133Z,101033.06
2022-08-22T13:45:22.481Z,101044.78
2022-08-22T13:47:57.206Z,101034.56
2022-08-22T13:50:28.762Z,101038.75
2022-08-22T13:53:05.902Z,101037.38
2022-08-22T13:55:38.709Z,101047.88
2022-08-22T13:58:42.338Z,101043.13
2022-08-22T14:01:13.788Z,101041.88
2022-08-22T14:03:56.656Z,101030.47
2022-08-22T14:06:41.548Z,101042.69
2022-08-22T14:09:31.985Z,101040.50
2022-08-22T14:12:12.768Z,101045.53
2022-08-22T14:14:46.402Z,101050.59
2022-08-22T14:17:22.414Z,101041.34
2022-08-22T14:20:32.581Z,101041.47
2022-08-22T14:23:04.833Z,101043.09
2022-08-22T14:25:36.613Z,101037.16
2022-08-22T14:28:06.432Z,101050.03
2022-08-22T14:31:00.998Z,101046.78
2022-08-22T14:33:39.983Z,101039.41
2022-08-22T14:38:46.318Z,101040.75
2022-08-22T14:41:55.603Z,101045.84
2022-08-22T14:44:23.407Z,101044.19
2022-08-22T14:46:54.675Z,101046.63
2022-08-22T14:49:33.730Z,101044.38
2022-08-22T14:52:04.998Z,101053.91
2022-08-22T14:54:32.527Z,101044.78
2022-08-22T14:57:01.747Z,101048.78
2022-08-22T14:59:37.037Z,101052.69
2022-08-22T15:02:13.060Z,101051.22
2022-08-22T15:04:43.193Z,101050.97
2022-08-22T15:07:22.604Z,101040.59
2022-08-22T15:09:56.315Z,101049.19
2022-08-22T15:12:32.172Z,101036.91
2022-08-22T15:15:03.758Z,101043.66
2022-08-22T15:17:35.825Z,101046.00
2022-08-22T15:20:13.611Z,101043.09
2022-08-22T15:22:48.385Z,101039.53
2022-08-22T15:25:26.999Z,101040.41
2022-08-22T15:27:57.110Z,101032.91
2022-08-22T15:31:31.598Z,101037.59
2022-08-22T15:34:10.737Z,101035.63
2022-08-22T15:37:16.562Z,101036.66
2022-08-22T15:40:11.619Z,101035.34
2022-08-22T15:43:33.739Z,101026.84
2022-08-22T15:46:18.321Z,101031.50
2022-08-22T15:48:56.374Z,101035.66
2022-08-22T15:51:42.931Z,101033.03
2022-08-22T15:54:26.506Z,101027.25
2022-08-22T15:57:31.553Z,101025.00
2022-08-22T16:00:12.125Z,101024.53
2022-08-22T16:02:56.205Z,101028.53
2022-08-22T16:05:37.689Z,101027.91
2022-08-22T16:08:21.331Z,101019.53
2022-08-22T16:10:54.826Z,101029.53
2022-08-22T16:13:30.165Z,101018.00
2022-08-22T16:16:03.883Z,101017.19
2022-08-22T16:18:33.420Z,101012.66
2022-08-22T16:21:08.241Z,101011.59
2022-08-22T16:24:01.175Z,101015.38
2022-08-22T16:26:40.970Z,101012.84
2022-08-22T16:29:29.448Z,101010.53
2022-08-22T16:32:02.107Z,101007.41
2022-08-22T16:34:43.903Z,101009.38
2022-08-22T16:37:19.356Z,101000.69
2022-08-22T16:40:14.535Z,101015.16
2022-08-22T16:42:44.875Z,101017.09
2022-08-22T16:45:31.574Z,101014.13
2022-08-22T16:47:58.823Z,101012.63
2022-08-22T16:50:37.928Z,101017.97
2022-08-22T16:53:06.727Z,101022.19
2022-08-22T16:55:42.162Z,101025.25
2022-08-22T16:58:56.534Z,101023.28
2022-08-22T17:01:45.848Z,101029.78
2022-08-22T17:04:27.897Z,101014.06
2022-08-22T17:07:11.106Z,101024.41
2022-08-22T17:10:06.096Z,101019.84
2022-08-22T17:12:47.697Z,101026.63
2022-08-22T17:15:25.899Z,101014.28
2022-08-22T17:18:11.690Z,101023.53
2022-08-22T17:20:53.026Z,101024.34
2022-08-22T17:23:48.096Z,101025.41
2022-08-22T17:26:57.091Z,101026.63
2022-08-22T17:30:14.882Z,101026.56
2022-08-22T17:33:02.822Z,101026.91
2022-08-22T17:35:45.744Z,101028.44
2022-08-22T17:38:33.315Z,101035.38
2022-08-22T17:41:08.103Z,101041.59
2022-08-22T17:43:48.445Z,101033.88
2022-08-22T17:46:30.681Z,101033.78
2022-08-22T17:49:20.074Z,101037.22
2022-08-22T17:52:22.488Z,101040.72
2022-08-22T17:55:01.021Z,101041.03
2022-08-22T17:57:48.642Z,101044.00
2022-08-22T18:00:20.263Z,101040.97
2022-08-22T18:03:09.801Z,101036.69
2022-08-22T18:05:45.018Z,101040.25
2022-08-22T18:09:14.868Z,101049.19
2022-08-22T18:11:57.541Z,101050.84
2022-08-22T18:14:36.619Z,101051.91
2022-08-22T18:20:03.991Z,101061.91
2022-08-22T18:22:36.224Z,101057.38
2022-08-22T18:25:10.163Z,101062.25
2022-08-22T18:28:03.971Z,101071.09
2022-08-22T18:30:38.195Z,101074.88
2022-08-22T18:33:09.565Z,101075.72
2022-08-22T18:36:14.186Z,101076.84
2022-08-22T18:38:50.828Z,101075.66
2022-08-22T18:41:44.004Z,101068.16
2022-08-22T18:44:21.326Z,101078.81
2022-08-22T18:46:53.787Z,101082.63
2022-08-22T18:49:20.662Z,101089.94
2022-08-22T18:52:05.977Z,101084.13
2022-08-22T18:55:03.282Z,101083.88
2022-08-22T18:58:04.182Z,101080.84
2022-08-22T19:00:58.681Z,101092.34
2022-08-22T19:04:03.787Z,101090.06
2022-08-22T19:06:52.676Z,101095.78
2022-08-22T19:09:58.157Z,101090.09
2022-08-22T19:12:41.055Z,101085.84
2022-08-22T19:15:45.809Z,101089.72
2022-08-22T19:18:24.859Z,101090.09
2022-08-22T19:21:35.211Z,101093.13
2022-08-22T19:24:25.697Z,101090.88
2022-08-22T19:27:08.068Z,101079.78
2022-08-22T19:29:34.580Z,101081.31
2022-08-22T19:32:05.886Z,101083.59
2022-08-22T19:34:47.953Z,101078.25
2022-08-22T19:37:30.674Z,101075.19
2022-08-22T19:40:11.509Z,101077.88
2022-08-22T19:42:40.330Z,101078.59
2022-08-22T19:45:29.265Z,101077.47
2022-08-22T19:48:00.509Z,101083.97
2022-08-22T19:50:33.324Z,101087.03
2022-08-22T19:53:07.460Z,101090.09
2022-08-22T19:55:37.579Z,101091.22
2022-08-22T19:58:12.095Z,101089.31
2022-08-22T20:01:26.962Z,101097.34
2022-08-22T20:04:20.548Z,101090.84
2022-08-22T20:07:17.463Z,101085.13
2022-08-22T20:10:17.509Z,101092.75
2022-08-22T20:13:18.431Z,101085.91
2022-08-22T20:16:23.398Z,101077.88
2022-08-22T20:19:09.475Z,101082.81
2022-08-22T20:21:43.874Z,101080.16
2022-08-22T20:24:16.480Z,101087.03
2022-08-22T20:27:09.971Z,101079.38
2022-08-22T20:29:34.007Z,101087.44
2022-08-22T20:32:01.592Z,101078.63
2022-08-22T20:34:33.551Z,101071.00
2022-08-22T20:37:23.715Z,101069.84
2022-08-22T20:40:53.459Z,101072.94
2022-08-22T20:43:32.236Z,101067.19
2022-08-22T20:46:24.402Z,101057.25
2022-08-22T20:48:53.933Z,101063.00
2022-08-22T20:51:29.261Z,101059.53
2022-08-22T20:54:02.883Z,101059.19
2022-08-22T20:56:53.679Z,101055.34
2022-08-22T20:59:29.779Z,101057.25
2022-08-22T21:02:18.538Z,101058.41
2022-08-22T21:05:00.306Z,101060.69
2022-08-22T21:07:35.632Z,101060.69
2022-08-22T21:10:45.353Z,101058.03
2022-08-22T21:13:19.782Z,101058.78
2022-08-22T21:15:51.619Z,101048.88
2022-08-22T21:18:33.209Z,101056.50
2022-08-22T21:21:27.319Z,101050.00
2022-08-22T21:24:01.060Z,101050.75
2022-08-22T21:26:36.896Z,101045.03
2022-08-22T21:29:12.379Z,101058.03
2022-08-22T21:31:43.018Z,101048.09
2022-08-22T21:34:19.952Z,101049.59
2022-08-22T21:36:51.200Z,101042.34
2022-08-22T21:39:31.134Z,101048.44
2022-08-22T21:42:00.681Z,101046.56
2022-08-22T21:47:17.333Z,101045.78
2022-08-22T21:50:13.263Z,101045.78
2022-08-22T21:52:55.997Z,101043.53
2022-08-22T21:55:43.296Z,101042.00
2022-08-22T21:58:22.034Z,101041.59
2022-08-22T22:01:31.687Z,101040.06
2022-08-22T22:04:01.980Z,101028.22
2022-08-22T22:06:28.790Z,101035.84
2022-08-22T22:08:55.446Z,101032.03
2022-08-22T22:11:22.102Z,101038.94
2022-08-22T22:13:49.027Z,101035.47
2022-08-22T22:16:22.087Z,101024.78
2022-08-22T22:18:48.642Z,101025.16
2022-08-22T22:21:15.377Z,101033.56
2022-08-22T22:23:41.882Z,101029.75
2022-08-22T22:26:08.975Z,101024.00
2022-08-22T22:28:41.808Z,101025.91
2022-08-22T22:31:11.582Z,101027.84
2022-08-22T22:33:39.571Z,101019.06
2022-08-22T22:36:10.437Z,101016.00
2022-08-22T22:38:38.291Z,101013.34
2022-08-22T22:41:04.778Z,101015.59
2022-08-22T22:43:31.424Z,101027.09
2022-08-22T22:45:58.657Z,101014.44
2022-08-22T22:48:25.223Z,101011.78
2022-08-22T22:50:53.031Z,101008.75
2022-08-22T22:53:21.480Z,101014.84
2022-08-22T22:56:05.795Z,101008.00
2022-08-22T22:58:33.547Z,101008.75
2022-08-22T23:01:18.099Z,101005.31
2022-08-22T23:03:45.303Z,100994.66
2022-08-22T23:06:19.755Z,100995.38
2022-08-22T23:08:47.477Z,100980.84
2022-08-22T23:11:20.546Z,100990.06
2022-08-22T23:13:50.563Z,100986.59
2022-08-22T23:16:19.745Z,100985.06
2022-08-22T23:18:47.789Z,100973.66
2022-08-22T23:21:16.866Z,100980.50
2022-08-22T23:23:44.295Z,100985.84
2022-08-22T23:26:11.596Z,100983.97
2022-08-22T23:28:38.121Z,100980.53
2022-08-22T23:31:17.015Z,100978.22
2022-08-22T23:33:45.453Z,100982.78
2022-08-22T23:36:14.202Z,100972.91
2022-08-22T23:38:40.883Z,100978.25
2022-08-22T23:41:09.887Z,100979.38
2022-08-22T23:43:37.539Z,100979.78
2022-08-22T23:46:04.094Z,100980.53
2022-08-22T23:48:30.674Z,100981.31
2022-08-22T23:50:57.240Z,100995.03
2022-08-22T23:53:23.761Z,100990.09
2022-08-22T23:55:50.243Z,100982.47
2022-08-22T23:58:16.790Z,100988.19
